sensor_id;sensor_type;location;lat;lon;timestamp;P1;durP1;ratioP1;P2;durP2;ratioP2
14007;SDS011;61651;45.508;12.232;2023-12-29T00:01:40;104.20;;;93.50;;
14007;SDS011;61651;45.508;12.232;2023-12-29T00:04:42;107.43;;;96.30;;
14007;SDS011;61651;45.508;12.232;2023-12-29T00:07:44;105.27;;;94.53;;
14007;SDS011;61651;45.508;12.232;2023-12-29T00:10:46;106.73;;;95.33;;
14007;SDS011;61651;45.508;12.232;2023-12-29T00:13:48;105.80;;;94.60;;
14007;SDS011;61651;45.508;12.232;2023-12-29T00:16:52;107.03;;;95.30;;
14007;SDS011;61651;45.508;12.232;2023-12-29T00:19:57;108.63;;;97.10;;
14007;SDS011;61651;45.508;12.232;2023-12-29T00:22:59;105.30;;;94.80;;
14007;SDS011;61651;45.508;12.232;2023-12-29T00:26:01;107.20;;;96.53;;
14007;SDS011;61651;45.508;12.232;2023-12-29T00:29:04;107.13;;;96.00;;
14007;SDS011;61651;45.508;12.232;2023-12-29T00:32:08;106.80;;;95.50;;
14007;SDS011;61651;45.508;12.232;2023-12-29T00:35:10;107.90;;;96.47;;
14007;SDS011;61651;45.508;12.232;2023-12-29T00:38:12;104.90;;;93.93;;
14007;SDS011;61651;45.508;12.232;2023-12-29T00:41:14;103.87;;;92.80;;
14007;SDS011;61651;45.508;12.232;2023-12-29T00:44:16;102.50;;;90.23;;
14007;SDS011;61651;45.508;12.232;2023-12-29T00:47:19;103.67;;;92.70;;
14007;SDS011;61651;45.508;12.232;2023-12-29T00:50:23;103.50;;;92.63;;
14007;SDS011;61651;45.508;12.232;2023-12-29T00:53:26;102.97;;;91.83;;
14007;SDS011;61651;45.508;12.232;2023-12-29T00:56:29;102.17;;;91.10;;
14007;SDS011;61651;45.508;12.232;2023-12-29T00:59:31;102.50;;;90.17;;
14007;SDS011;61651;45.508;12.232;2023-12-29T01:02:34;97.10;;;86.43;;
14007;SDS011;61651;45.508;12.232;2023-12-29T01:05:36;102.83;;;91.60;;
14007;SDS011;61651;45.508;12.232;2023-12-29T01:08:38;102.63;;;91.80;;
14007;SDS011;61651;45.508;12.232;2023-12-29T01:11:40;100.30;;;90.03;;
14007;SDS011;61651;45.508;12.232;2023-12-29T01:14:42;98.80;;;88.23;;
14007;SDS011;61651;45.508;12.232;2023-12-29T01:17:45;98.87;;;88.70;;
14007;SDS011;61651;45.508;12.232;2023-12-29T01:20:47;99.43;;;88.77;;
14007;SDS011;61651;45.508;12.232;2023-12-29T01:23:49;99.63;;;89.07;;
14007;SDS011;61651;45.508;12.232;2023-12-29T01:26:51;101.70;;;91.03;;
14007;SDS011;61651;45.508;12.232;2023-12-29T01:29:53;95.23;;;84.90;;
14007;SDS011;61651;45.508;12.232;2023-12-29T01:32:57;96.47;;;86.50;;
14007;SDS011;61651;45.508;12.232;2023-12-29T01:35:59;100.27;;;89.43;;
14007;SDS011;61651;45.508;12.232;2023-12-29T01:39:01;100.03;;;89.40;;
14007;SDS011;61651;45.508;12.232;2023-12-29T01:42:03;102.60;;;91.80;;
14007;SDS011;61651;45.508;12.232;2023-12-29T01:45:06;94.97;;;84.83;;
14007;SDS011;61651;45.508;12.232;2023-12-29T01:48:23;94.33;;;84.70;;
14007;SDS011;61651;45.508;12.232;2023-12-29T01:51:26;93.63;;;83.90;;
14007;SDS011;61651;45.508;12.232;2023-12-29T01:54:30;97.53;;;87.67;;
14007;SDS011;61651;45.508;12.232;2023-12-29T01:57:36;94.27;;;84.37;;
14007;SDS011;61651;45.508;12.232;2023-12-29T02:00:39;97.07;;;87.00;;
14007;SDS011;61651;45.508;12.232;2023-12-29T02:03:42;97.13;;;86.93;;
14007;SDS011;61651;45.508;12.232;2023-12-29T02:06:45;93.17;;;83.33;;
14007;SDS011;61651;45.508;12.232;2023-12-29T02:09:47;86.00;;;77.30;;
14007;SDS011;61651;45.508;12.232;2023-12-29T02:12:51;88.47;;;79.30;;
14007;SDS011;61651;45.508;12.232;2023-12-29T02:15:58;82.77;;;74.33;;
14007;SDS011;61651;45.508;12.232;2023-12-29T02:19:13;83.93;;;75.20;;
14007;SDS011;61651;45.508;12.232;2023-12-29T02:22:26;82.40;;;73.93;;
14007;SDS011;61651;45.508;12.232;2023-12-29T02:25:30;83.13;;;74.70;;
14007;SDS011;61651;45.508;12.232;2023-12-29T02:28:32;80.73;;;71.97;;
14007;SDS011;61651;45.508;12.232;2023-12-29T02:31:40;80.43;;;72.30;;
14007;SDS011;61651;45.508;12.232;2023-12-29T02:34:48;82.33;;;73.60;;
14007;SDS011;61651;45.508;12.232;2023-12-29T02:37:53;80.53;;;72.57;;
14007;SDS011;61651;45.508;12.232;2023-12-29T02:40:57;76.90;;;68.93;;
14007;SDS011;61651;45.508;12.232;2023-12-29T02:44:00;76.07;;;68.00;;
14007;SDS011;61651;45.508;12.232;2023-12-29T02:47:02;77.27;;;69.00;;
14007;SDS011;61651;45.508;12.232;2023-12-29T02:50:04;75.10;;;67.27;;
14007;SDS011;61651;45.508;12.232;2023-12-29T02:53:07;78.93;;;70.63;;
14007;SDS011;61651;45.508;12.232;2023-12-29T02:56:11;75.27;;;67.27;;
14007;SDS011;61651;45.508;12.232;2023-12-29T02:59:13;76.20;;;67.93;;
14007;SDS011;61651;45.508;12.232;2023-12-29T03:02:15;78.37;;;68.40;;
14007;SDS011;61651;45.508;12.232;2023-12-29T03:05:17;73.43;;;65.77;;
14007;SDS011;61651;45.508;12.232;2023-12-29T03:08:19;71.63;;;64.37;;
14007;SDS011;61651;45.508;12.232;2023-12-29T03:11:22;68.40;;;61.27;;
14007;SDS011;61651;45.508;12.232;2023-12-29T03:14:24;69.57;;;62.40;;
14007;SDS011;61651;45.508;12.232;2023-12-29T03:17:26;66.13;;;59.13;;
14007;SDS011;61651;45.508;12.232;2023-12-29T03:20:28;65.13;;;58.13;;
14007;SDS011;61651;45.508;12.232;2023-12-29T03:23:30;66.13;;;59.20;;
14007;SDS011;61651;45.508;12.232;2023-12-29T03:26:34;68.03;;;60.93;;
14007;SDS011;61651;45.508;12.232;2023-12-29T03:29:36;63.60;;;57.07;;
14007;SDS011;61651;45.508;12.232;2023-12-29T03:32:38;64.80;;;57.93;;
14007;SDS011;61651;45.508;12.232;2023-12-29T03:35:40;63.53;;;57.00;;
14007;SDS011;61651;45.508;12.232;2023-12-29T03:38:42;61.43;;;55.20;;
14007;SDS011;61651;45.508;12.232;2023-12-29T03:41:45;63.23;;;56.60;;
14007;SDS011;61651;45.508;12.232;2023-12-29T03:44:47;64.10;;;57.50;;
14007;SDS011;61651;45.508;12.232;2023-12-29T03:47:49;64.13;;;57.43;;
14007;SDS011;61651;45.508;12.232;2023-12-29T03:50:51;64.80;;;57.90;;
14007;SDS011;61651;45.508;12.232;2023-12-29T03:53:53;67.13;;;59.77;;
14007;SDS011;61651;45.508;12.232;2023-12-29T03:56:56;65.23;;;58.27;;
14007;SDS011;61651;45.508;12.232;2023-12-29T03:59:58;64.40;;;57.77;;
14007;SDS011;61651;45.508;12.232;2023-12-29T04:03:00;63.63;;;57.07;;
14007;SDS011;61651;45.508;12.232;2023-12-29T04:06:03;62.57;;;56.00;;
14007;SDS011;61651;45.508;12.232;2023-12-29T04:09:05;62.43;;;55.67;;
14007;SDS011;61651;45.508;12.232;2023-12-29T04:12:09;61.83;;;55.30;;
14007;SDS011;61651;45.508;12.232;2023-12-29T04:15:11;64.70;;;57.73;;
14007;SDS011;61651;45.508;12.232;2023-12-29T04:18:13;62.80;;;56.07;;
14007;SDS011;61651;45.508;12.232;2023-12-29T04:21:15;61.63;;;54.57;;
14007;SDS011;61651;45.508;12.232;2023-12-29T04:24:17;60.53;;;54.30;;
14007;SDS011;61651;45.508;12.232;2023-12-29T04:27:21;59.80;;;53.70;;
14007;SDS011;61651;45.508;12.232;2023-12-29T04:30:23;62.80;;;55.73;;
14007;SDS011;61651;45.508;12.232;2023-12-29T04:33:26;59.67;;;53.10;;
14007;SDS011;61651;45.508;12.232;2023-12-29T04:36:28;62.40;;;55.83;;
14007;SDS011;61651;45.508;12.232;2023-12-29T04:39:30;58.83;;;52.83;;
14007;SDS011;61651;45.508;12.232;2023-12-29T04:42:33;59.37;;;53.27;;
14007;SDS011;61651;45.508;12.232;2023-12-29T04:45:35;59.53;;;53.43;;
14007;SDS011;61651;45.508;12.232;2023-12-29T04:48:37;59.70;;;53.53;;
14007;SDS011;61651;45.508;12.232;2023-12-29T05:27:38;57.97;;;51.83;;
14007;SDS011;61651;45.508;12.232;2023-12-29T05:30:40;56.87;;;50.97;;
14007;SDS011;61651;45.508;12.232;2023-12-29T05:33:42;57.27;;;51.50;;
14007;SDS011;61651;45.508;12.232;2023-12-29T05:36:45;58.40;;;52.27;;
14007;SDS011;61651;45.508;12.232;2023-12-29T05:39:47;54.33;;;48.67;;
14007;SDS011;61651;45.508;12.232;2023-12-29T05:42:50;58.73;;;52.57;;
14007;SDS011;61651;45.508;12.232;2023-12-29T05:45:52;57.67;;;51.63;;
14007;SDS011;61651;45.508;12.232;2023-12-29T05:48:54;55.80;;;49.87;;
14007;SDS011;61651;45.508;12.232;2023-12-29T05:51:56;55.97;;;50.20;;
14007;SDS011;61651;45.508;12.232;2023-12-29T05:54:58;53.30;;;46.90;;
14007;SDS011;61651;45.508;12.232;2023-12-29T05:58:02;50.87;;;45.70;;
14007;SDS011;61651;45.508;12.232;2023-12-29T06:01:04;47.97;;;43.03;;
14007;SDS011;61651;45.508;12.232;2023-12-29T06:04:06;48.40;;;43.70;;
14007;SDS011;61651;45.508;12.232;2023-12-29T06:07:08;47.73;;;42.80;;
14007;SDS011;61651;45.508;12.232;2023-12-29T06:10:10;48.27;;;43.50;;
14007;SDS011;61651;45.508;12.232;2023-12-29T06:13:14;49.60;;;44.63;;
14007;SDS011;61651;45.508;12.232;2023-12-29T06:16:19;48.93;;;44.13;;
14007;SDS011;61651;45.508;12.232;2023-12-29T06:19:21;46.23;;;41.50;;
14007;SDS011;61651;45.508;12.232;2023-12-29T06:22:23;47.47;;;42.83;;
14007;SDS011;61651;45.508;12.232;2023-12-29T06:25:27;47.70;;;42.83;;
14007;SDS011;61651;45.508;12.232;2023-12-29T06:28:30;45.93;;;41.27;;
14007;SDS011;61651;45.508;12.232;2023-12-29T06:31:32;45.70;;;40.93;;
14007;SDS011;61651;45.508;12.232;2023-12-29T06:34:34;46.30;;;41.60;;
14007;SDS011;61651;45.508;12.232;2023-12-29T06:37:36;46.83;;;41.83;;
14007;SDS011;61651;45.508;12.232;2023-12-29T06:40:39;47.10;;;42.37;;
14007;SDS011;61651;45.508;12.232;2023-12-29T06:43:42;48.90;;;43.73;;
14007;SDS011;61651;45.508;12.232;2023-12-29T06:46:45;49.77;;;44.77;;
14007;SDS011;61651;45.508;12.232;2023-12-29T06:49:47;49.37;;;44.27;;
14007;SDS011;61651;45.508;12.232;2023-12-29T06:52:49;48.53;;;43.43;;
14007;SDS011;61651;45.508;12.232;2023-12-29T06:55:51;46.30;;;41.67;;
14007;SDS011;61651;45.508;12.232;2023-12-29T06:58:55;48.37;;;43.40;;
14007;SDS011;61651;45.508;12.232;2023-12-29T07:01:57;44.87;;;40.50;;
14007;SDS011;61651;45.508;12.232;2023-12-29T07:04:59;39.37;;;35.10;;
14007;SDS011;61651;45.508;12.232;2023-12-29T07:08:01;37.80;;;34.00;;
14007;SDS011;61651;45.508;12.232;2023-12-29T07:11:03;36.63;;;32.90;;
14007;SDS011;61651;45.508;12.232;2023-12-29T07:14:06;34.70;;;31.20;;
14007;SDS011;61651;45.508;12.232;2023-12-29T07:17:08;30.73;;;27.67;;
14007;SDS011;61651;45.508;12.232;2023-12-29T07:20:10;30.57;;;27.40;;
14007;SDS011;61651;45.508;12.232;2023-12-29T07:23:12;32.53;;;25.80;;
14007;SDS011;61651;45.508;12.232;2023-12-29T07:26:14;27.47;;;24.53;;
14007;SDS011;61651;45.508;12.232;2023-12-29T07:29:18;29.90;;;26.03;;
14007;SDS011;61651;45.508;12.232;2023-12-29T07:32:20;31.47;;;24.97;;
14007;SDS011;61651;45.508;12.232;2023-12-29T07:35:22;27.63;;;24.80;;
14007;SDS011;61651;45.508;12.232;2023-12-29T07:38:24;29.13;;;25.63;;
14007;SDS011;61651;45.508;12.232;2023-12-29T07:41:26;27.60;;;24.70;;
14007;SDS011;61651;45.508;12.232;2023-12-29T07:44:30;26.67;;;23.97;;
14007;SDS011;61651;45.508;12.232;2023-12-29T07:47:31;28.10;;;25.20;;
14007;SDS011;61651;45.508;12.232;2023-12-29T07:50:33;28.40;;;25.33;;
14007;SDS011;61651;45.508;12.232;2023-12-29T07:53:37;30.60;;;26.57;;
14007;SDS011;61651;45.508;12.232;2023-12-29T07:56:38;28.10;;;24.93;;
14007;SDS011;61651;45.508;12.232;2023-12-29T07:59:42;28.50;;;24.23;;
14007;SDS011;61651;45.508;12.232;2023-12-29T08:02:44;27.63;;;24.70;;
14007;SDS011;61651;45.508;12.232;2023-12-29T08:05:46;29.90;;;25.70;;
14007;SDS011;61651;45.508;12.232;2023-12-29T08:08:48;29.57;;;26.37;;
14007;SDS011;61651;45.508;12.232;2023-12-29T08:11:50;29.40;;;26.23;;
14007;SDS011;61651;45.508;12.232;2023-12-29T08:14:53;29.83;;;26.63;;
14007;SDS011;61651;45.508;12.232;2023-12-29T08:17:56;30.47;;;27.37;;
14007;SDS011;61651;45.508;12.232;2023-12-29T08:20:58;30.67;;;26.10;;
14007;SDS011;61651;45.508;12.232;2023-12-29T08:24:00;28.67;;;25.60;;
14007;SDS011;61651;45.508;12.232;2023-12-29T08:27:03;27.80;;;25.07;;
14007;SDS011;61651;45.508;12.232;2023-12-29T08:30:07;28.53;;;25.67;;
14007;SDS011;61651;45.508;12.232;2023-12-29T08:33:09;28.33;;;25.37;;
14007;SDS011;61651;45.508;12.232;2023-12-29T08:36:12;27.23;;;24.43;;
14007;SDS011;61651;45.508;12.232;2023-12-29T08:39:14;28.93;;;25.83;;
14007;SDS011;61651;45.508;12.232;2023-12-29T08:42:18;27.67;;;24.80;;
14007;SDS011;61651;45.508;12.232;2023-12-29T08:45:21;29.73;;;26.53;;
14007;SDS011;61651;45.508;12.232;2023-12-29T08:48:23;28.33;;;25.47;;
14007;SDS011;61651;45.508;12.232;2023-12-29T08:51:25;29.30;;;26.50;;
14007;SDS011;61651;45.508;12.232;2023-12-29T08:54:27;30.67;;;27.47;;
14007;SDS011;61651;45.508;12.232;2023-12-29T08:57:30;29.77;;;26.57;;
14007;SDS011;61651;45.508;12.232;2023-12-29T09:00:34;30.03;;;26.97;;
14007;SDS011;61651;45.508;12.232;2023-12-29T09:03:36;30.53;;;27.23;;
14007;SDS011;61651;45.508;12.232;2023-12-29T09:06:39;30.43;;;27.43;;
14007;SDS011;61651;45.508;12.232;2023-12-29T09:09:41;30.13;;;27.00;;
14007;SDS011;61651;45.508;12.232;2023-12-29T09:12:43;31.83;;;27.70;;
14007;SDS011;61651;45.508;12.232;2023-12-29T09:15:47;30.67;;;27.47;;
14007;SDS011;61651;45.508;12.232;2023-12-29T09:18:49;31.97;;;28.83;;
14007;SDS011;61651;45.508;12.232;2023-12-29T09:21:51;30.67;;;27.37;;
14007;SDS011;61651;45.508;12.232;2023-12-29T09:24:53;30.53;;;27.63;;
14007;SDS011;61651;45.508;12.232;2023-12-29T09:27:55;32.13;;;28.93;;
14007;SDS011;61651;45.508;12.232;2023-12-29T09:30:59;32.50;;;29.30;;
14007;SDS011;61651;45.508;12.232;2023-12-29T09:34:01;33.53;;;30.10;;
14007;SDS011;61651;45.508;12.232;2023-12-29T09:37:04;33.23;;;29.83;;
14007;SDS011;61651;45.508;12.232;2023-12-29T09:40:06;32.73;;;29.37;;
14007;SDS011;61651;45.508;12.232;2023-12-29T09:43:11;33.33;;;28.90;;
14007;SDS011;61651;45.508;12.232;2023-12-29T09:46:15;33.07;;;29.57;;
14007;SDS011;61651;45.508;12.232;2023-12-29T09:49:19;34.77;;;31.17;;
14007;SDS011;61651;45.508;12.232;2023-12-29T09:52:21;33.07;;;29.63;;
14007;SDS011;61651;45.508;12.232;2023-12-29T09:55:23;32.10;;;28.90;;
14007;SDS011;61651;45.508;12.232;2023-12-29T09:58:26;33.90;;;30.40;;
14007;SDS011;61651;45.508;12.232;2023-12-29T10:01:30;32.73;;;29.37;;
14007;SDS011;61651;45.508;12.232;2023-12-29T10:04:33;34.53;;;29.87;;
14007;SDS011;61651;45.508;12.232;2023-12-29T10:07:36;31.40;;;28.20;;
14007;SDS011;61651;45.508;12.232;2023-12-29T10:10:39;33.87;;;30.30;;
14007;SDS011;61651;45.508;12.232;2023-12-29T10:13:43;31.70;;;28.40;;
14007;SDS011;61651;45.508;12.232;2023-12-29T10:16:50;33.27;;;29.87;;
14007;SDS011;61651;45.508;12.232;2023-12-29T10:19:58;31.47;;;28.00;;
14007;SDS011;61651;45.508;12.232;2023-12-29T10:23:08;31.93;;;28.83;;
14007;SDS011;61651;45.508;12.232;2023-12-29T10:26:14;30.17;;;27.07;;
14007;SDS011;61651;45.508;12.232;2023-12-29T10:29:16;31.17;;;27.90;;
14007;SDS011;61651;45.508;12.232;2023-12-29T10:32:22;30.57;;;27.47;;
14007;SDS011;61651;45.508;12.232;2023-12-29T10:35:24;31.80;;;28.50;;
14007;SDS011;61651;45.508;12.232;2023-12-29T10:38:26;29.33;;;26.33;;
14007;SDS011;61651;45.508;12.232;2023-12-29T10:41:28;30.73;;;27.60;;
14007;SDS011;61651;45.508;12.232;2023-12-29T10:44:30;31.53;;;28.30;;
14007;SDS011;61651;45.508;12.232;2023-12-29T10:47:33;31.93;;;28.63;;
14007;SDS011;61651;45.508;12.232;2023-12-29T10:50:42;33.50;;;29.50;;
14007;SDS011;61651;45.508;12.232;2023-12-29T10:53:45;33.53;;;29.87;;
14007;SDS011;61651;45.508;12.232;2023-12-29T10:57:02;33.80;;;30.20;;
14007;SDS011;61651;45.508;12.232;2023-12-29T11:00:05;36.93;;;33.03;;
14007;SDS011;61651;45.508;12.232;2023-12-29T11:03:10;37.73;;;33.70;;
14007;SDS011;61651;45.508;12.232;2023-12-29T11:06:16;37.70;;;33.00;;
14007;SDS011;61651;45.508;12.232;2023-12-29T11:09:26;35.17;;;31.47;;
14007;SDS011;61651;45.508;12.232;2023-12-29T11:12:30;35.37;;;31.60;;
14007;SDS011;61651;45.508;12.232;2023-12-29T11:15:34;35.00;;;31.37;;
14007;SDS011;61651;45.508;12.232;2023-12-29T11:18:38;37.43;;;31.13;;
14007;SDS011;61651;45.508;12.232;2023-12-29T11:21:42;35.00;;;31.40;;
14007;SDS011;61651;45.508;12.232;2023-12-29T11:24:46;36.30;;;32.60;;
14007;SDS011;61651;45.508;12.232;2023-12-29T11:27:49;35.30;;;31.60;;
14007;SDS011;61651;45.508;12.232;2023-12-29T11:30:53;37.90;;;33.90;;
14007;SDS011;61651;45.508;12.232;2023-12-29T11:33:57;36.33;;;32.40;;
14007;SDS011;61651;45.508;12.232;2023-12-29T11:37:09;34.93;;;30.53;;
14007;SDS011;61651;45.508;12.232;2023-12-29T11:40:20;32.93;;;29.40;;
14007;SDS011;61651;45.508;12.232;2023-12-29T11:43:25;35.13;;;31.63;;
14007;SDS011;61651;45.508;12.232;2023-12-29T11:46:35;34.33;;;30.70;;
14007;SDS011;61651;45.508;12.232;2023-12-29T11:53:02;35.03;;;31.23;;
14007;SDS011;61651;45.508;12.232;2023-12-29T11:56:05;39.03;;;34.00;;
14007;SDS011;61651;45.508;12.232;2023-12-29T11:59:17;37.97;;;33.13;;
14007;SDS011;61651;45.508;12.232;2023-12-29T12:02:26;38.87;;;31.43;;
14007;SDS011;61651;45.508;12.232;2023-12-29T12:08:48;35.07;;;31.27;;
14007;SDS011;61651;45.508;12.232;2023-12-29T12:11:50;34.23;;;30.60;;
14007;SDS011;61651;45.508;12.232;2023-12-29T12:14:52;35.67;;;30.53;;
14007;SDS011;61651;45.508;12.232;2023-12-29T12:17:55;34.53;;;30.13;;
14007;SDS011;61651;45.508;12.232;2023-12-29T12:20:59;34.73;;;31.03;;
14007;SDS011;61651;45.508;12.232;2023-12-29T12:24:04;34.73;;;31.03;;
14007;SDS011;61651;45.508;12.232;2023-12-29T12:27:09;34.23;;;30.53;;
14007;SDS011;61651;45.508;12.232;2023-12-29T12:30:11;36.37;;;32.50;;
14007;SDS011;61651;45.508;12.232;2023-12-29T12:33:20;35.67;;;31.87;;
14007;SDS011;61651;45.508;12.232;2023-12-29T12:36:24;36.33;;;32.43;;
14007;SDS011;61651;45.508;12.232;2023-12-29T12:39:37;35.87;;;32.13;;
14007;SDS011;61651;45.508;12.232;2023-12-29T12:42:40;37.63;;;32.90;;
14007;SDS011;61651;45.508;12.232;2023-12-29T12:45:46;36.00;;;32.10;;
14007;SDS011;61651;45.508;12.232;2023-12-29T12:48:49;39.40;;;33.30;;
14007;SDS011;61651;45.508;12.232;2023-12-29T12:51:55;36.23;;;32.30;;
14007;SDS011;61651;45.508;12.232;2023-12-29T12:54:57;35.80;;;32.00;;
14007;SDS011;61651;45.508;12.232;2023-12-29T12:57:59;38.37;;;34.27;;
14007;SDS011;61651;45.508;12.232;2023-12-29T13:01:01;37.13;;;33.23;;
14007;SDS011;61651;45.508;12.232;2023-12-29T13:04:04;37.43;;;33.20;;
14007;SDS011;61651;45.508;12.232;2023-12-29T13:07:09;35.83;;;32.20;;
14007;SDS011;61651;45.508;12.232;2023-12-29T13:10:12;34.57;;;30.67;;
14007;SDS011;61651;45.508;12.232;2023-12-29T13:13:14;32.73;;;29.40;;
14007;SDS011;61651;45.508;12.232;2023-12-29T13:16:16;31.93;;;28.50;;
14007;SDS011;61651;45.508;12.232;2023-12-29T13:19:18;31.87;;;28.30;;
14007;SDS011;61651;45.508;12.232;2023-12-29T13:22:23;30.83;;;27.60;;
14007;SDS011;61651;45.508;12.232;2023-12-29T13:25:27;31.13;;;27.97;;
14007;SDS011;61651;45.508;12.232;2023-12-29T13:28:29;35.80;;;27.53;;
14007;SDS011;61651;45.508;12.232;2023-12-29T13:31:32;29.43;;;26.30;;
14007;SDS011;61651;45.508;12.232;2023-12-29T13:34:37;29.87;;;26.77;;
14007;SDS011;61651;45.508;12.232;2023-12-29T13:37:50;30.20;;;26.77;;
14007;SDS011;61651;45.508;12.232;2023-12-29T13:41:01;30.90;;;27.70;;
14007;SDS011;61651;45.508;12.232;2023-12-29T13:44:05;30.93;;;26.83;;
14007;SDS011;61651;45.508;12.232;2023-12-29T13:47:09;30.97;;;27.27;;
14007;SDS011;61651;45.508;12.232;2023-12-29T13:50:12;30.45;;;27.30;;
14007;SDS011;61651;45.508;12.232;2023-12-29T13:53:17;30.33;;;27.15;;
14007;SDS011;61651;45.508;12.232;2023-12-29T13:56:19;30.43;;;27.50;;
14007;SDS011;61651;45.508;12.232;2023-12-29T13:59:31;29.97;;;26.87;;
14007;SDS011;61651;45.508;12.232;2023-12-29T14:02:36;31.67;;;27.53;;
14007;SDS011;61651;45.508;12.232;2023-12-29T14:05:43;31.52;;;26.65;;
14007;SDS011;61651;45.508;12.232;2023-12-29T14:08:53;30.97;;;27.67;;
14007;SDS011;61651;45.508;12.232;2023-12-29T14:11:55;30.10;;;26.93;;
14007;SDS011;61651;45.508;12.232;2023-12-29T14:15:02;30.55;;;27.33;;
14007;SDS011;61651;45.508;12.232;2023-12-29T14:18:05;30.50;;;27.17;;
14007;SDS011;61651;45.508;12.232;2023-12-29T14:21:21;29.53;;;26.50;;
14007;SDS011;61651;45.508;12.232;2023-12-29T14:24:25;31.50;;;27.27;;
14007;SDS011;61651;45.508;12.232;2023-12-29T14:27:27;31.23;;;28.00;;
14007;SDS011;61651;45.508;12.232;2023-12-29T14:30:30;30.33;;;27.10;;
14007;SDS011;61651;45.508;12.232;2023-12-29T14:33:33;29.42;;;26.23;;
14007;SDS011;61651;45.508;12.232;2023-12-29T14:36:37;30.70;;;26.30;;
14007;SDS011;61651;45.508;12.232;2023-12-29T14:39:42;31.58;;;26.50;;
14007;SDS011;61651;45.508;12.232;2023-12-29T14:42:49;28.70;;;25.60;;
14007;SDS011;61651;45.508;12.232;2023-12-29T14:45:51;29.10;;;26.10;;
14007;SDS011;61651;45.508;12.232;2023-12-29T14:48:54;30.20;;;26.85;;
14007;SDS011;61651;45.508;12.232;2023-12-29T14:51:58;29.03;;;26.23;;
14007;SDS011;61651;45.508;12.232;2023-12-29T14:55:01;29.63;;;26.60;;
14007;SDS011;61651;45.508;12.232;2023-12-29T14:58:04;30.80;;;27.50;;
14007;SDS011;61651;45.508;12.232;2023-12-29T15:01:06;30.80;;;27.67;;
14007;SDS011;61651;45.508;12.232;2023-12-29T15:04:08;29.67;;;26.57;;
14007;SDS011;61651;45.508;12.232;2023-12-29T15:07:12;29.63;;;26.53;;
14007;SDS011;61651;45.508;12.232;2023-12-29T15:10:15;30.53;;;27.37;;
14007;SDS011;61651;45.508;12.232;2023-12-29T15:13:17;30.67;;;27.37;;
14007;SDS011;61651;45.508;12.232;2023-12-29T15:16:19;30.70;;;27.40;;
14007;SDS011;61651;45.508;12.232;2023-12-29T15:19:21;29.42;;;26.40;;
14007;SDS011;61651;45.508;12.232;2023-12-29T15:22:23;31.73;;;28.43;;
14007;SDS011;61651;45.508;12.232;2023-12-29T15:25:27;33.50;;;30.10;;
14007;SDS011;61651;45.508;12.232;2023-12-29T15:28:30;32.30;;;28.93;;
14007;SDS011;61651;45.508;12.232;2023-12-29T15:31:32;32.93;;;29.43;;
14007;SDS011;61651;45.508;12.232;2023-12-29T15:34:34;33.90;;;30.30;;
14007;SDS011;61651;45.508;12.232;2023-12-29T15:37:36;38.00;;;33.80;;
14007;SDS011;61651;45.508;12.232;2023-12-29T15:40:39;32.47;;;29.13;;
14007;SDS011;61651;45.508;12.232;2023-12-29T15:43:41;33.97;;;30.27;;
14007;SDS011;61651;45.508;12.232;2023-12-29T15:46:44;32.67;;;29.17;;
14007;SDS011;61651;45.508;12.232;2023-12-29T15:49:46;36.73;;;31.80;;
14007;SDS011;61651;45.508;12.232;2023-12-29T15:52:48;33.80;;;30.27;;
14007;SDS011;61651;45.508;12.232;2023-12-29T15:55:52;39.73;;;32.90;;
14007;SDS011;61651;45.508;12.232;2023-12-29T15:58:54;36.17;;;32.53;;
14007;SDS011;61651;45.508;12.232;2023-12-29T16:01:57;39.87;;;34.73;;
14007;SDS011;61651;45.508;12.232;2023-12-29T16:04:59;41.13;;;36.10;;
14007;SDS011;61651;45.508;12.232;2023-12-29T16:08:02;43.17;;;35.47;;
14007;SDS011;61651;45.508;12.232;2023-12-29T16:11:05;41.97;;;36.50;;
14007;SDS011;61651;45.508;12.232;2023-12-29T16:14:07;41.50;;;34.05;;
14007;SDS011;61651;45.508;12.232;2023-12-29T16:17:09;38.55;;;34.38;;
14007;SDS011;61651;45.508;12.232;2023-12-29T16:20:11;40.03;;;35.92;;
14007;SDS011;61651;45.508;12.232;2023-12-29T16:23:13;39.13;;;34.93;;
14007;SDS011;61651;45.508;12.232;2023-12-29T16:26:17;38.90;;;34.10;;
14007;SDS011;61651;45.508;12.232;2023-12-29T16:29:20;37.87;;;33.87;;
14007;SDS011;61651;45.508;12.232;2023-12-29T16:32:22;37.80;;;34.00;;
14007;SDS011;61651;45.508;12.232;2023-12-29T16:35:26;40.33;;;35.77;;
14007;SDS011;61651;45.508;12.232;2023-12-29T16:38:28;40.97;;;34.87;;
14007;SDS011;61651;45.508;12.232;2023-12-29T16:41:31;40.50;;;34.30;;
14007;SDS011;61651;45.508;12.232;2023-12-29T16:44:34;37.70;;;33.60;;
14007;SDS011;61651;45.508;12.232;2023-12-29T16:47:36;37.43;;;33.60;;
14007;SDS011;61651;45.508;12.232;2023-12-29T16:50:39;40.37;;;36.13;;
14007;SDS011;61651;45.508;12.232;2023-12-29T16:53:41;39.90;;;35.63;;
14007;SDS011;61651;45.508;12.232;2023-12-29T16:56:44;38.10;;;34.10;;
14007;SDS011;61651;45.508;12.232;2023-12-29T16:59:46;37.87;;;33.97;;
14007;SDS011;61651;45.508;12.232;2023-12-29T17:02:48;39.97;;;35.33;;
14007;SDS011;61651;45.508;12.232;2023-12-29T17:05:50;41.63;;;37.10;;
14007;SDS011;61651;45.508;12.232;2023-12-29T17:08:53;39.90;;;35.53;;
14007;SDS011;61651;45.508;12.232;2023-12-29T17:11:56;41.37;;;37.00;;
14007;SDS011;61651;45.508;12.232;2023-12-29T17:14:58;39.13;;;35.03;;
14007;SDS011;61651;45.508;12.232;2023-12-29T17:18:04;41.50;;;37.03;;
14007;SDS011;61651;45.508;12.232;2023-12-29T17:21:06;41.23;;;36.67;;
14007;SDS011;61651;45.508;12.232;2023-12-29T17:24:09;39.80;;;35.50;;
14007;SDS011;61651;45.508;12.232;2023-12-29T17:27:12;42.23;;;37.70;;
14007;SDS011;61651;45.508;12.232;2023-12-29T17:30:14;44.37;;;39.57;;
14007;SDS011;61651;45.508;12.232;2023-12-29T17:33:17;41.27;;;36.67;;
14007;SDS011;61651;45.508;12.232;2023-12-29T17:36:19;46.40;;;41.27;;
14007;SDS011;61651;45.508;12.232;2023-12-29T17:39:21;42.90;;;38.37;;
14007;SDS011;61651;45.508;12.232;2023-12-29T17:42:24;53.03;;;47.50;;
14007;SDS011;61651;45.508;12.232;2023-12-29T17:45:26;46.60;;;41.80;;
14007;SDS011;61651;45.508;12.232;2023-12-29T17:48:28;46.17;;;41.27;;
14007;SDS011;61651;45.508;12.232;2023-12-29T17:51:30;55.13;;;44.97;;
14007;SDS011;61651;45.508;12.232;2023-12-29T17:54:32;49.33;;;43.37;;
14007;SDS011;61651;45.508;12.232;2023-12-29T17:57:36;46.37;;;41.63;;
14007;SDS011;61651;45.508;12.232;2023-12-29T18:00:39;45.10;;;40.27;;
14007;SDS011;61651;45.508;12.232;2023-12-29T18:03:41;46.93;;;41.93;;
14007;SDS011;61651;45.508;12.232;2023-12-29T18:06:43;48.77;;;43.27;;
14007;SDS011;61651;45.508;12.232;2023-12-29T18:09:45;47.60;;;41.63;;
14007;SDS011;61651;45.508;12.232;2023-12-29T18:12:49;46.77;;;41.73;;
14007;SDS011;61651;45.508;12.232;2023-12-29T18:15:51;56.03;;;49.80;;
14007;SDS011;61651;45.508;12.232;2023-12-29T18:18:53;54.07;;;48.23;;